Time;durP1;ratioP1;P1;durP2;ratioP2;P2;SDS_P1;SDS_P2;PMS_P1;PMS_P2;Temp;Humidity;BMP_temperature;BMP_pressure;BME280_temperature;BME280_humidity;BME280_pressure;Samples;Min_cycle;Max_cycle;Signal;HPM_P1;HPM_P2
2021/09/11 00:00:51;;;;;;;;;;;;;;;7.61;100.00;99718.34;4954823;28;19922;-82
2021/09/11 00:03:16;;;;;;;;;;;;;;;7.58;100.00;99722.84;4954847;29;19919;-84
2021/09/11 00:05:41;;;;;;;;;;;;;;;7.63;100.00;99720.91;4954921;28;20013;-82
2021/09/11 00:08:07;;;;;;;;;;;;;;;7.70;100.00;99724.22;4954006;29;19918;-82
2021/09/11 00:10:32;;;;;;;;;;;;;;;7.65;100.00;99713.81;4953572;29;19923;-82
2021/09/11 00:12:58;;;;;;;;;;;;;;;7.67;100.00;99709.34;4955356;29;19922;-85
2021/09/11 00:15:25;;;;;;;;;;;;;;;7.65;100.00;99711.19;4956605;29;20021;-91
2021/09/11 00:17:51;;;;;;;;;;;;;;;7.65;100.00;99705.91;4971941;28;20012;-88
2021/09/11 00:20:17;;;;;;;;;;;;;;;7.62;100.00;99695.44;4955400;28;20046;-86
2021/09/11 00:22:42;;;;;;;;;;;;;;;7.66;100.00;99697.09;4954895;29;19957;-84
2021/09/11 00:25:08;;;;;;;;;;;;;;;7.60;100.00;99702.56;4955056;29;19919;-85
2021/09/11 00:27:33;;;;;;;;;;;;;;;7.65;100.00;99695.34;4971124;28;20566;-84
2021/09/11 00:29:59;;;;;;;;;;;;;;;7.62;100.00;99690.19;4954211;28;20037;-85
2021/09/11 00:32:24;;;;;;;;;;;;;;;7.60;100.00;99695.50;4953760;28;19995;-85
2021/09/11 00:34:49;;;;;;;;;;;;;;;7.66;99.88;99698.84;4953661;28;20286;-85
2021/09/11 00:37:15;;;;;;;;;;;;;;;7.63;99.93;99702.47;4966822;28;20294;-84
2021/09/11 00:39:40;;;;;;;;;;;;;;;7.55;100.00;99707.13;4953204;28;19982;-85
2021/09/11 00:42:05;;;;;;;;;;;;;;;7.62;100.00;99700.72;4954001;28;20393;-84
2021/09/11 00:44:30;;;;;;;;;;;;;;;7.55;99.67;99699.22;4954068;29;20069;-84
2021/09/11 00:46:56;;;;;;;;;;;;;;;12.79;100.00;99687.63;4954098;28;19925;-87
2021/09/11 00:49:21;;;;;;;;;;;;;;;10.63;100.00;99684.06;4954784;28;20436;-85
2021/09/11 00:51:47;;;;;;;;;;;;;;;10.06;100.00;99695.28;4954512;28;19922;-83
2021/09/11 00:54:12;;;;;;;;;;;;;;;8.66;100.00;99699.00;4955278;28;20009;-82
2021/09/11 00:56:38;;;;;;;;;;;;;;;8.22;100.00;99701.38;4952724;29;19918;-82
2021/09/11 00:59:04;;;;;;;;;;;;;;;8.02;100.00;99704.69;4953875;29;20378;-82
2021/09/11 01:01:29;;;;;;;;;;;;;;;7.95;100.00;99703.19;4954021;28;19930;-82
2021/09/11 01:03:55;;;;;;;;;;;;;;;7.83;100.00;99709.72;4969771;28;19922;-83
2021/09/11 03:15:49;;;;;;;;;;;;;;;7.17;100.00;99694.22;4982837;28;19937;-82
2021/09/11 03:18:15;;;;;;;;;;;;;;;7.17;100.00;99688.94;4986090;28;19922;-82
2021/09/11 03:20:40;;;;;;;;;;;;;;;7.13;100.00;99695.19;4984939;28;19976;-82
2021/09/11 03:23:05;;;;;;;;;;;;;;;7.14;100.00;99690.81;5017327;28;20014;-82
2021/09/11 03:25:31;;;;;;;;;;;;;;;7.19;100.00;99691.53;4984624;28;19918;-82
2021/09/11 03:27:57;;;;;;;;;;;;;;;7.15;100.00;99680.22;4983615;28;19918;-82
2021/09/11 03:30:22;;;;;;;;;;;;;;;7.14;100.00;99673.22;5017401;28;19994;-82
2021/09/11 03:32:48;;;;;;;;;;;;;;;7.14;100.00;99675.84;4984655;28;19918;-83
2021/09/11 03:35:13;;;;;;;;;;;;;;;7.17;100.00;99680.19;4985740;28;19922;-83
2021/09/11 03:37:38;;;;;;;;;;;;;;;7.23;100.00;99683.47;5001226;28;20296;-82
2021/09/11 03:40:04;;;;;;;;;;;;;;;7.46;100.00;99681.91;5017346;28;19968;-81
2021/09/11 03:42:29;;;;;;;;;;;;;;;7.56;100.00;99687.72;4984567;28;19925;-81
2021/09/11 03:44:55;;;;;;;;;;;;;;;7.68;100.00;99684.72;4991946;28;19922;-81
2021/09/11 03:47:20;;;;;;;;;;;;;;;7.78;100.00;99680.00;4985456;28;19997;-82
2021/09/11 03:49:45;;;;;;;;;;;;;;;7.87;100.00;99678.84;4985586;28;19921;-82
2021/09/11 03:52:11;;;;;;;;;;;;;;;7.84;100.00;99678.94;4985822;28;19922;-83
2021/09/11 03:54:36;;;;;;;;;;;;;;;7.70;100.00;99682.88;4985597;28;20008;-83
2021/09/11 03:57:01;;;;;;;;;;;;;;;7.62;100.00;99684.91;4985238;28;19922;-83
2021/09/11 03:59:26;;;;;;;;;;;;;;;7.51;100.00;99692.28;4983984;28;19964;-82
2021/09/11 04:01:52;;;;;;;;;;;;;;;7.60;100.00;99692.00;4985718;28;19922;-81
2021/09/11 04:04:17;;;;;;;;;;;;;;;7.66;100.00;99691.81;4985273;28;20288;-82
2021/09/11 04:06:42;;;;;;;;;;;;;;;7.77;100.00;99689.69;4985021;28;19976;-82
2021/09/11 04:09:07;;;;;;;;;;;;;;;7.87;100.00;99686.75;4984662;28;19928;-82
2021/09/11 04:11:33;;;;;;;;;;;;;;;7.95;100.00;99690.00;4984434;28;19922;-81
2021/09/11 04:13:58;;;;;;;;;;;;;;;8.03;100.00;99695.88;4983369;28;19925;-81
2021/09/11 04:16:23;;;;;;;;;;;;;;;8.01;100.00;99695.06;4984855;28;19921;-82
2021/09/11 04:18:48;;;;;;;;;;;;;;;8.08;100.00;99695.72;4985159;28;19914;-82
2021/09/11 04:21:14;;;;;;;;;;;;;;;8.65;100.00;99691.97;4985171;28;20384;-80
2021/09/11 04:23:39;;;;;;;;;;;;;;;9.02;100.00;99692.38;4984961;28;19985;-81
2021/09/11 04:26:04;;;;;;;;;;;;;;;9.16;100.00;99691.84;4984670;28;19980;-81
2021/09/11 04:28:29;;;;;;;;;;;;;;;9.34;100.00;99687.63;4983633;28;20012;-80
2021/09/11 04:30:55;;;;;;;;;;;;;;;9.37;100.00;99688.38;4984870;28;19929;-82
2021/09/11 04:33:20;;;;;;;;;;;;;;;9.17;100.00;99697.06;4999588;28;19918;-80
2021/09/11 04:35:45;;;;;;;;;;;;;;;9.00;100.00;99686.28;4984962;28;19925;-82
2021/09/11 04:38:10;;;;;;;;;;;;;;;8.83;100.00;99693.06;4984781;28;19918;-82
2021/09/11 04:40:36;;;;;;;;;;;;;;;8.66;100.00;99691.06;4984578;28;20321;-82
2021/09/11 04:43:03;;;;;;;;;;;;;;;8.55;100.00;99690.56;4983346;28;19918;-83
2021/09/11 04:45:28;;;;;;;;;;;;;;;8.49;100.00;99688.16;5016126;28;19928;-81
2021/09/11 04:47:53;;;;;;;;;;;;;;;8.37;100.00;99684.13;4983005;28;20359;-82
2021/09/11 04:50:19;;;;;;;;;;;;;;;8.27;100.00;99694.16;4984264;28;19924;-81
2021/09/11 04:52:44;;;;;;;;;;;;;;;8.28;100.00;99692.38;4983021;28;19918;-82
2021/09/11 04:55:10;;;;;;;;;;;;;;;8.27;100.00;99695.94;4984285;28;19928;-83
2021/09/11 04:57:35;;;;;;;;;;;;;;;8.22;100.00;99689.94;4983837;28;19924;-83
2021/09/11 05:00:01;;;;;;;;;;;;;;;8.13;100.00;99691.97;4983716;28;20293;-83
2021/09/11 05:02:27;;;;;;;;;;;;;;;8.07;100.00;99692.19;4984133;28;19929;-83
2021/09/11 05:04:53;;;;;;;;;;;;;;;8.04;100.00;99692.31;4984237;28;20029;-83
2021/09/11 05:07:18;;;;;;;;;;;;;;;8.03;100.00;99689.75;4984394;28;19918;-82
2021/09/11 05:09:44;;;;;;;;;;;;;;;8.04;100.00;99692.31;4983907;28;19925;-81
2021/09/11 05:12:09;;;;;;;;;;;;;;;7.97;100.00;99688.16;4983700;28;20004;-81
2021/09/11 05:14:34;;;;;;;;;;;;;;;7.99;100.00;99692.47;4982820;28;19929;-81
2021/09/11 05:16:59;;;;;;;;;;;;;;;7.93;100.00;99694.44;4984232;28;19926;-83
2021/09/11 05:19:25;;;;;;;;;;;;;;;7.94;100.00;99701.44;5015201;28;19918;-83
2021/09/11 08:00:21;;;;;;;;;;;;;;;7.52;100.00;99783.69;5186874;23;19934;-80
2021/09/11 08:02:46;;;;;;;;;;;;;;;7.58;100.00;99778.22;5034522;28;19921;-81
2021/09/11 08:05:12;;;;;;;;;;;;;;;7.53;100.00;99785.38;5034485;28;19948;-80
2021/09/11 08:07:37;;;;;;;;;;;;;;;7.52;100.00;99788.94;5034342;28;19924;-81
2021/09/11 08:10:02;;;;;;;;;;;;;;;7.45;100.00;99783.84;5049611;28;19917;-80
2021/09/11 08:12:28;;;;;;;;;;;;;;;7.51;100.00;99788.06;5034347;28;19921;-80
2021/09/11 08:14:53;;;;;;;;;;;;;;;7.52;100.00;99788.94;5030295;28;20818;-80
2021/09/11 08:17:18;;;;;;;;;;;;;;;7.52;100.00;99794.22;5033851;28;20320;-81
2021/09/11 08:19:44;;;;;;;;;;;;;;;7.60;100.00;99808.03;5033966;28;20020;-81
2021/09/11 08:22:09;;;;;;;;;;;;;;;7.52;100.00;99808.25;5033356;28;19918;-81
2021/09/11 08:24:34;;;;;;;;;;;;;;;7.55;100.00;99802.03;5033998;28;19917;-82
2021/09/11 08:26:59;;;;;;;;;;;;;;;7.47;100.00;99804.91;5033538;28;19917;-81
2021/09/11 08:29:25;;;;;;;;;;;;;;;7.48;100.00;99816.31;5032096;28;19921;-81
2021/09/11 08:31:50;;;;;;;;;;;;;;;7.54;100.00;99819.63;5033370;28;20023;-80
2021/09/11 08:34:16;;;;;;;;;;;;;;;7.52;100.00;99815.31;5033803;28;19924;-81
2021/09/11 08:36:41;;;;;;;;;;;;;;;7.53;100.00;99809.13;5033629;28;20360;-81
2021/09/11 08:39:07;;;;;;;;;;;;;;;7.50;100.00;99811.84;5033665;28;19917;-81
2021/09/11 08:41:33;;;;;;;;;;;;;;;7.56;100.00;99811.66;5049103;28;19975;-81
2021/09/11 08:44:00;;;;;;;;;;;;;;;7.51;100.00;99813.59;5032050;28;19925;-81
2021/09/11 08:46:28;;;;;;;;;;;;;;;7.51;100.00;99824.13;5033577;28;20311;-81
2021/09/11 08:48:53;;;;;;;;;;;;;;;7.54;100.00;99818.75;5032702;28;19925;-81
2021/09/11 08:51:19;;;;;;;;;;;;;;;7.51;100.00;99810.94;5033280;28;19943;-81
2021/09/11 08:53:44;;;;;;;;;;;;;;;7.53;100.00;99814.38;5033452;28;19981;-81
2021/09/11 08:56:10;;;;;;;;;;;;;;;7.46;100.00;99819.00;5033353;28;19914;-81
2021/09/11 08:58:35;;;;;;;;;;;;;;;7.42;100.00;99817.38;5032085;28;20447;-81
2021/09/11 09:01:01;;;;;;;;;;;;;;;7.52;100.00;99820.59;5033188;28;19925;-81
2021/09/11 09:03:35;;;;;;;;;;;;;;;7.50;100.00;99825.91;5032935;28;19917;-81
2021/09/11 09:06:16;;;;;;;;;;;;;;;7.48;100.00;99825.06;5032746;28;20003;-81
2021/09/11 09:08:42;;;;;;;;;;;;;;;7.48;100.00;99819.78;5033178;28;20356;-81
2021/09/11 09:11:33;;;;;;;;;;;;;;;7.42;100.00;99820.84;5032905;28;19923;-81
2021/09/11 09:14:00;;;;;;;;;;;;;;;7.38;100.00;99829.75;5031110;28;19921;-81
2021/09/11 09:16:50;;;;;;;;;;;;;;;7.38;100.00;99829.75;5032869;28;19921;-81
2021/09/11 09:19:23;;;;;;;;;;;;;;;7.54;100.00;99838.06;5032420;28;19921;-81
2021/09/11 09:21:49;;;;;;;;;;;;;;;7.46;100.00;99837.44;5032646;28;20016;-81
2021/09/11 09:24:36;;;;;;;;;;;;;;;7.45;100.00;99831.31;5032966;28;19924;-82
2021/09/11 09:27:05;;;;;;;;;;;;;;;7.45;100.00;99835.69;5032473;28;19964;-81
2021/09/11 09:29:33;;;;;;;;;;;;;;;7.50;100.00;99830.31;5031243;28;19924;-81
2021/09/11 09:32:00;;;;;;;;;;;;;;;7.54;100.00;99834.59;5032522;28;19921;-81
2021/09/11 09:34:39;;;;;;;;;;;;;;;7.53;100.00;99822.31;5031963;28;20434;-81
2021/09/11 09:37:08;;;;;;;;;;;;;;;7.53;100.00;99824.94;5032499;28;19971;-81
2021/09/11 09:39:44;;;;;;;;;;;;;;;7.53;100.00;99817.91;5032440;28;20148;-81
2021/09/11 09:42:09;;;;;;;;;;;;;;;7.51;100.00;99821.50;5032113;28;20379;-82
2021/09/11 09:44:41;;;;;;;;;;;;;;;7.52;100.00;99820.59;5031335;28;19956;-81
2021/09/11 09:47:10;;;;;;;;;;;;;;;7.56;100.00;99824.84;5031690;28;19913;-82
2021/09/11 09:49:35;;;;;;;;;;;;;;;7.51;100.00;99824.13;5031508;28;19921;-81
2021/09/11 09:52:00;;;;;;;;;;;;;;;7.58;100.00;99821.28;5032181;28;19921;-81
2021/09/11 09:54:27;;;;;;;;;;;;;;;7.53;100.00;99828.47;5032462;28;19924;-81
2021/09/11 09:56:52;;;;;;;;;;;;;;;7.54;100.00;99832.81;5031017;28;20367;-81
2021/09/11 09:59:17;;;;;;;;;;;;;;;7.54;100.00;99829.31;5031211;28;19928;-82
2021/09/11 10:01:43;;;;;;;;;;;;;;;7.55;100.00;99834.53;5032048;28;20384;-81
2021/09/11 10:04:15;;;;;;;;;;;;;;;7.52;100.00;99829.34;5032215;28;19975;-81
2021/09/11 10:06:42;;;;;;;;;;;;;;;7.55;100.00;99828.41;5032087;28;19995;-82
2021/09/11 10:09:07;;;;;;;;;;;;;;;7.53;100.00;99832.84;5032096;28;19921;-81
2021/09/11 10:11:37;;;;;;;;;;;;;;;7.59;100.00;99827.41;5031918;28;20000;-82
2021/09/11 10:14:04;;;;;;;;;;;;;;;7.53;100.00;99824.94;5030658;28;19921;-82
2021/09/11 10:16:30;;;;;;;;;;;;;;;7.59;100.00;99822.13;5031389;28;19959;-81
2021/09/11 10:18:56;;;;;;;;;;;;;;;7.54;100.00;99824.91;5031860;28;19917;-81
2021/09/11 10:21:49;;;;;;;;;;;;;;;7.52;100.00;99831.13;5031818;28;19971;-82
2021/09/11 10:24:23;;;;;;;;;;;;;;;7.58;100.00;99820.41;5046877;28;19960;-82
2021/09/11 10:26:52;;;;;;;;;;;;;;;7.54;100.00;99816.13;5031058;28;20011;-82
2021/09/11 10:29:30;;;;;;;;;;;;;;;7.58;100.00;99825.69;5029126;28;20012;-82
2021/09/11 10:32:05;;;;;;;;;;;;;;;7.59;100.00;99828.25;5031556;28;19918;-83
2021/09/11 10:34:53;;;;;;;;;;;;;;;7.55;100.00;99820.50;5031121;28;20404;-83
2021/09/11 10:37:40;;;;;;;;;;;;;;;7.57;100.00;99819.53;5030453;28;19917;-83
2021/09/11 10:40:11;;;;;;;;;;;;;;;7.61;100.00;99812.38;5030236;28;19924;-83
2021/09/11 10:42:55;;;;;;;;;;;;;;;7.59;100.00;99806.31;5031666;28;19917;-85
2021/09/11 10:45:36;;;;;;;;;;;;;;;7.58;100.00;99805.44;5029145;28;20279;-82
2021/09/11 10:48:05;;;;;;;;;;;;;;;7.61;100.00;99808.00;5032491;28;20103;-82
2021/09/11 10:50:37;;;;;;;;;;;;;;;7.59;100.00;99804.50;5030893;28;19940;-82
2021/09/11 10:53:17;;;;;;;;;;;;;;;7.58;100.00;99799.31;5034962;28;19928;-82
2021/09/11 10:55:43;;;;;;;;;;;;;;;7.57;100.00;99792.31;5033684;28;19924;-83
2021/09/11 10:58:24;;;;;;;;;;;;;;;7.54;100.00;99795.03;5035405;28;19921;-82
2021/09/11 11:01:01;;;;;;;;;;;;;;;7.61;100.00;99796.56;5034626;28;19925;-83
2021/09/11 11:03:26;;;;;;;;;;;;;;;7.55;100.00;99784.44;5035356;28;20007;-83
2021/09/11 11:06:02;;;;;;;;;;;;;;;7.57;100.00;99792.31;5035450;28;20006;-83
2021/09/11 11:08:31;;;;;;;;;;;;;;;7.54;100.00;99793.25;5035300;28;19971;-83
2021/09/11 11:10:57;;;;;;;;;;;;;;;7.65;100.00;99795.56;5035204;28;20283;-82
2021/09/11 11:13:23;;;;;;;;;;;;;;;7.64;100.00;99791.19;5032479;28;20023;-82
2021/09/11 11:15:54;;;;;;;;;;;;;;;7.53;100.00;99794.19;5035319;28;20296;-82
2021/09/11 11:18:19;;;;;;;;;;;;;;;7.61;100.00;99791.28;5035064;28;20356;-83
2021/09/11 11:20:44;;;;;;;;;;;;;;;7.56;100.00;99787.94;5035175;28;20486;-83
2021/09/11 11:23:10;;;;;;;;;;;;;;;7.72;100.00;99789.22;5033668;28;19971;-83
2021/09/11 11:25:37;;;;;;;;;;;;;;;7.62;100.00;99785.97;5035033;28;19921;-83
2021/09/11 11:28:04;;;;;;;;;;;;;;;7.61;100.00;99783.38;5049473;28;20000;-83
2021/09/11 11:30:29;;;;;;;;;;;;;;;7.63;100.00;99790.34;5031790;28;20370;-83
2021/09/11 11:32:57;;;;;;;;;;;;;;;7.69;100.00;99781.38;5035246;28;20012;-84
2021/09/11 11:35:23;;;;;;;;;;;;;;;7.63;100.00;99789.50;5033503;28;20048;-84
2021/09/11 11:37:48;;;;;;;;;;;;;;;7.69;100.00;99794.56;5033621;28;19924;-83
2021/09/11 11:40:14;;;;;;;;;;;;;;;7.69;100.00;99786.66;5033484;28;20333;-83
2021/09/11 11:42:42;;;;;;;;;;;;;;;7.64;100.00;99785.91;5033418;28;19921;-84
2021/09/11 11:45:08;;;;;;;;;;;;;;;7.64;100.00;99778.91;5031400;28;19925;-84
2021/09/11 11:47:33;;;;;;;;;;;;;;;7.63;100.00;99776.31;5033457;28;20398;-83
2021/09/11 11:49:59;;;;;;;;;;;;;;;7.61;100.00;99778.09;5032626;28;19956;-83
2021/09/11 11:52:24;;;;;;;;;;;;;;;7.68;100.00;99774.38;5030230;28;19985;-83
2021/09/11 11:54:50;;;;;;;;;;;;;;;7.64;100.00;99778.91;5032697;28;20016;-83
2021/09/11 11:57:16;;;;;;;;;;;;;;;7.62;100.00;99774.56;5032329;28;19921;-84
2021/09/11 11:59:42;;;;;;;;;;;;;;;7.62;100.00;99780.69;5031914;28;19917;-84
2021/09/11 12:02:17;;;;;;;;;;;;;;;7.68;100.00;99774.38;5031746;28;19971;-84
2021/09/11 12:04:42;;;;;;;;;;;;;;;7.58;100.00;99765.03;5032942;28;19917;-83
2021/09/11 12:07:08;;;;;;;;;;;;;;;7.67;100.00;99763.88;5032940;28;19923;-83
2021/09/11 12:09:33;;;;;;;;;;;;;;;7.64;100.00;99762.19;5027451;28;19925;-82
2021/09/11 12:12:03;;;;;;;;;;;;;;;7.75;100.00;99765.34;5032170;28;19929;-83
2021/09/11 12:14:28;;;;;;;;;;;;;;;7.70;100.00;99758.50;5032821;28;20291;-83
2021/09/11 12:16:54;;;;;;;;;;;;;;;7.62;100.00;99771.94;5032805;28;19913;-83
2021/09/11 12:19:19;;;;;;;;;;;;;;;7.67;100.00;99756.81;5032593;28;20195;-83
2021/09/11 12:21:46;;;;;;;;;;;;;;;7.60;100.00;99766.69;5028083;28;19918;-84
2021/09/11 12:24:21;;;;;;;;;;;;;;;7.56;100.00;99762.44;5032481;28;19913;-84
2021/09/11 12:26:46;;;;;;;;;;;;;;;7.56;100.00;99764.19;5049188;28;19921;-84
2021/09/11 12:29:15;;;;;;;;;;;;;;;7.59;100.00;99758.84;5026755;28;20394;-84
2021/09/11 12:31:49;;;;;;;;;;;;;;;7.59;100.00;99750.91;5048270;28;19971;-84
2021/09/11 12:34:18;;;;;;;;;;;;;;;7.54;100.00;99753.69;5044250;28;19925;-83
2021/09/11 12:36:47;;;;;;;;;;;;;;;7.59;100.00;99748.28;5032258;28;19960;-84
2021/09/11 12:39:15;;;;;;;;;;;;;;;7.55;100.00;99746.66;5033660;28;19921;-84
2021/09/11 12:41:41;;;;;;;;;;;;;;;7.67;100.00;99741.00;5033055;28;19956;-84
2021/09/11 12:44:08;;;;;;;;;;;;;;;7.69;100.00;99744.47;5031985;28;19967;-84
2021/09/11 12:46:33;;;;;;;;;;;;;;;7.62;100.00;99749.03;5032231;28;19917;-84
2021/09/11 12:48:58;;;;;;;;;;;;;;;7.56;100.00;99753.66;5033555;28;20376;-84
2021/09/11 12:51:24;;;;;;;;;;;;;;;7.62;100.00;99754.31;5031866;28;19929;-84
2021/09/11 12:53:49;;;;;;;;;;;;;;;7.61;100.00;99751.72;5033848;28;19960;-84
2021/09/11 12:56:21;;;;;;;;;;;;;;;7.52;100.00;99747.63;5033361;28;20364;-83
2021/09/11 12:58:47;;;;;;;;;;;;;;;7.57;100.00;99750.13;5030719;28;19925;-84
2021/09/11 13:01:12;;;;;;;;;;;;;;;7.53;100.00;99752.00;5032907;28;19925;-83
2021/09/11 13:03:37;;;;;;;;;;;;;;;7.59;100.00;99745.66;5033201;28;20007;-83
2021/09/11 13:06:03;;;;;;;;;;;;;;;7.55;100.00;99738.75;5033165;28;19921;-83
2021/09/11 13:08:28;;;;;;;;;;;;;;;7.59;100.00;99743.88;5033097;28;19918;-83
2021/09/11 13:10:53;;;;;;;;;;;;;;;7.57;100.00;99748.34;5031794;28;19928;-83
2021/09/11 13:13:18;;;;;;;;;;;;;;;7.57;100.00;99740.41;5031352;28;20395;-83
2021/09/11 13:15:44;;;;;;;;;;;;;;;7.55;100.00;99744.03;5032875;28;20319;-83
2021/09/11 13:18:09;;;;;;;;;;;;;;;7.50;100.00;99744.19;5031732;28;19973;-83
2021/09/11 13:20:35;;;;;;;;;;;;;;;7.51;100.00;99740.59;5032697;28;19924;-83
2021/09/11 13:23:00;;;;;;;;;;;;;;;7.54;100.00;99740.50;5032818;28;20249;-83
2021/09/11 13:25:26;;;;;;;;;;;;;;;7.52;100.00;99744.97;5032711;28;19921;-83
2021/09/11 13:27:51;;;;;;;;;;;;;;;7.47;100.00;99741.63;5032914;28;19917;-83
2021/09/11 13:30:18;;;;;;;;;;;;;;;7.49;100.00;99742.44;5031332;28;19952;-83
2021/09/11 13:32:43;;;;;;;;;;;;;;;7.48;100.00;99740.69;5032811;28;20430;-83
2021/09/11 13:35:09;;;;;;;;;;;;;;;7.43;100.00;99737.34;5032488;28;19921;-83
2021/09/11 13:37:34;;;;;;;;;;;;;;;7.43;100.00;99743.47;5032511;28;19921;-84
2021/09/11 13:39:59;;;;;;;;;;;;;;;7.42;100.00;99741.78;5031026;28;19925;-83
2021/09/11 13:42:25;;;;;;;;;;;;;;;7.38;100.00;99737.50;5032538;28;20499;-83
2021/09/11 13:44:52;;;;;;;;;;;;;;;7.35;100.00;99742.84;5031167;28;19918;-83
2021/09/11 13:47:18;;;;;;;;;;;;;;;7.34;100.00;99738.50;5032345;28;20269;-83
2021/09/11 13:49:43;;;;;;;;;;;;;;;7.35;100.00;99749.91;5032300;28;19921;-83
2021/09/11 13:52:24;;;;;;;;;;;;;;;7.27;100.00;99742.22;5090263;27;19916;-85
2021/09/11 13:54:49;;;;;;;;;;;;;;;7.22;100.00;99736.22;5089331;28;19973;-85
2021/09/11 13:57:15;;;;;;;;;;;;;;;7.28;100.00;99736.91;5088071;28;20527;-85
2021/09/11 13:59:41;;;;;;;;;;;;;;;7.32;100.00;99747.34;5121004;28;19970;-85
2021/09/11 14:02:07;;;;;;;;;;;;;;;7.30;100.00;99744.78;5089396;28;19920;-85
2021/09/11 14:04:32;;;;;;;;;;;;;;;7.34;100.00;99742.91;5087619;28;19916;-85
2021/09/11 14:06:58;;;;;;;;;;;;;;;7.30;100.00;99744.78;5087969;28;19917;-85
2021/09/11 14:09:23;;;;;;;;;;;;;;;7.33;100.00;99743.81;5121975;28;19917;-85
2021/09/11 14:11:49;;;;;;;;;;;;;;;7.32;100.00;99748.22;5087811;28;19921;-84
2021/09/11 14:14:14;;;;;;;;;;;;;;;7.48;100.00;99745.13;5087863;28;19916;-85
2021/09/11 14:16:39;;;;;;;;;;;;;;;7.32;100.00;99747.34;5088998;28;20019;-85
2021/09/11 14:19:05;;;;;;;;;;;;;;;7.38;100.00;99741.91;5121746;28;19931;-85
2021/09/11 14:21:31;;;;;;;;;;;;;;;7.39;100.00;99744.50;5088410;28;19920;-84
2021/09/11 14:23:57;;;;;;;;;;;;;;;7.38;100.00;99732.22;5089202;28;19924;-85
2021/09/11 14:26:23;;;;;;;;;;;;;;;7.38;100.00;99744.53;5088806;28;19917;-83
2021/09/11 14:28:48;;;;;;;;;;;;;;;7.40;100.00;99746.25;5087569;28;19947;-85
2021/09/11 14:31:13;;;;;;;;;;;;;;;7.38;100.00;99742.75;5088615;28;19956;-85
2021/09/11 14:33:39;;;;;;;;;;;;;;;7.37;100.00;99748.06;5121258;28;19985;-85
2021/09/11 14:36:05;;;;;;;;;;;;;;;7.35;100.00;99758.66;5088539;28;20054;-85
2021/09/11 14:38:30;;;;;;;;;;;;;;;7.34;100.00;99751.69;5088579;28;19923;-84
2021/09/11 14:40:55;;;;;;;;;;;;;;;7.32;100.00;99753.47;5088565;28;19924;-84
2021/09/11 14:43:21;;;;;;;;;;;;;;;7.32;100.00;99753.47;5087319;28;19947;-84
2021/09/11 14:45:46;;;;;;;;;;;;;;;7.32;100.00;99752.63;5088471;28;20034;-84
2021/09/11 14:48:11;;;;;;;;;;;;;;;7.34;100.00;99762.22;5088333;28;19927;-84
2021/09/11 14:50:37;;;;;;;;;;;;;;;7.36;100.00;99757.75;5086810;28;19927;-85
2021/09/11 14:53:02;;;;;;;;;;;;;;;7.39;100.00;99747.13;5087090;28;19916;-84
2021/09/11 14:55:27;;;;;;;;;;;;;;;7.39;100.00;99752.41;5088252;28;20345;-84
2021/09/11 14:57:53;;;;;;;;;;;;;;;7.38;100.00;99755.94;5088297;28;20318;-84
2021/09/11 15:00:18;;;;;;;;;;;;;;;7.43;100.00;99750.53;5087118;28;19916;-84
2021/09/11 15:02:43;;;;;;;;;;;;;;;7.32;100.00;99756.13;5080225;28;20379;-84
2021/09/11 15:05:09;;;;;;;;;;;;;;;7.36;99.48;99760.41;5074710;28;19916;-84
2021/09/11 15:07:34;;;;;;;;;;;;;;;7.46;100.00;99764.47;5074569;28;20355;-84
2021/09/11 15:10:01;;;;;;;;;;;;;;;7.34;99.95;99763.97;5073654;28;19916;-84
2021/09/11 15:12:26;;;;;;;;;;;;;;;7.31;100.00;99761.44;5074196;28;19920;-84
2021/09/11 15:14:52;;;;;;;;;;;;;;;7.29;100.00;99766.75;5073145;28;19924;-84
2021/09/11 15:17:17;;;;;;;;;;;;;;;7.40;100.00;99772.59;5073956;28;19924;-84
2021/09/11 15:19:43;;;;;;;;;;;;;;;7.31;100.00;99759.69;5074340;28;19967;-84
2021/09/11 15:22:10;;;;;;;;;;;;;;;7.26;100.00;99758.97;5074322;28;19921;-84
2021/09/11 15:24:35;;;;;;;;;;;;;;;7.30;100.00;99757.94;5074055;28;19986;-84
2021/09/11 15:27:00;;;;;;;;;;;;;;;7.28;100.00;99759.78;5073343;28;19924;-84
2021/09/11 15:29:26;;;;;;;;;;;;;;;7.28;100.00;99759.78;5072214;28;19921;-83
2021/09/11 15:31:51;;;;;;;;;;;;;;;7.29;100.00;99761.47;5072680;28;20014;-84
2021/09/11 15:34:16;;;;;;;;;;;;;;;7.27;100.00;99761.56;5072045;28;19920;-84
2021/09/11 15:36:41;;;;;;;;;;;;;;;7.28;100.00;99759.78;5074079;28;20367;-84
2021/09/11 15:39:07;;;;;;;;;;;;;;;7.30;100.00;99759.72;5072456;28;19928;-84
2021/09/11 15:41:32;;;;;;;;;;;;;;;7.39;99.95;99757.69;5106643;28;20468;-84
2021/09/11 15:43:58;;;;;;;;;;;;;;;7.31;100.00;99756.16;5070992;28;19920;-83
2021/09/11 15:46:23;;;;;;;;;;;;;;;7.28;100.00;99757.13;5072873;28;19928;-83
2021/09/11 15:48:48;;;;;;;;;;;;;;;7.30;100.00;99752.69;5073734;28;19965;-84
2021/09/11 15:51:14;;;;;;;;;;;;;;;7.29;100.00;99756.22;5073273;28;20015;-83
2021/09/11 15:53:39;;;;;;;;;;;;;;;7.27;100.00;99753.66;5073157;28;20371;-84
2021/09/11 15:56:05;;;;;;;;;;;;;;;7.31;100.00;99754.41;5106406;28;19924;-84
2021/09/11 15:58:30;;;;;;;;;;;;;;;7.27;99.97;99752.75;5072177;28;19916;-84
2021/09/11 16:00:56;;;;;;;;;;;;;;;7.27;99.97;99758.03;5073159;28;19970;-84
2021/09/11 16:03:21;;;;;;;;;;;;;;;7.28;100.00;99754.50;5073540;28;19917;-84
2021/09/11 16:05:47;;;;;;;;;;;;;;;7.31;100.00;99751.78;5071492;28;19974;-84
2021/09/11 16:08:12;;;;;;;;;;;;;;;7.34;100.00;99751.69;5073259;28;19930;-84
2021/09/11 16:10:37;;;;;;;;;;;;;;;7.42;100.00;99756.72;5072667;28;19920;-84
2021/09/11 16:13:03;;;;;;;;;;;;;;;7.40;99.25;99753.25;5073226;28;19928;-84
2021/09/11 16:15:28;;;;;;;;;;;;;;;7.39;99.70;99752.41;5070558;28;19920;-84
2021/09/11 16:17:53;;;;;;;;;;;;;;;7.31;99.75;99754.41;5072861;28;19920;-84
2021/09/11 16:20:19;;;;;;;;;;;;;;;7.28;100.00;99751.88;5072211;28;19931;-84
2021/09/11 16:22:45;;;;;;;;;;;;;;;7.30;100.00;99750.03;5072536;28;19939;-84
2021/09/11 16:25:12;;;;;;;;;;;;;;;7.28;99.77;99754.50;5072537;28;19959;-84
2021/09/11 16:27:38;;;;;;;;;;;;;;;7.32;99.83;99750.84;5072492;28;19995;-83
2021/09/11 16:30:04;;;;;;;;;;;;;;;7.19;99.56;99760.03;5070804;28;19933;-84
2021/09/11 16:32:30;;;;;;;;;;;;;;;7.23;99.78;99764.31;5072008;28;19920;-84
2021/09/11 16:34:56;;;;;;;;;;;;;;;7.24;99.24;99766.91;5071980;28;19924;-84
2021/09/11 16:37:21;;;;;;;;;;;;;;;7.19;99.21;99760.91;5071932;28;20007;-83
2021/09/11 16:39:46;;;;;;;;;;;;;;;7.24;99.68;99758.13;5070009;28;19924;-84
2021/09/11 16:42:12;;;;;;;;;;;;;;;7.22;99.16;99765.22;5071385;28;19924;-84
2021/09/11 16:44:37;;;;;;;;;;;;;;;7.16;99.18;99755.72;5069636;28;19927;-83
2021/09/11 16:47:02;;;;;;;;;;;;;;;7.16;99.29;99760.13;5071567;28;19917;-83
2021/09/11 16:49:28;;;;;;;;;;;;;;;7.18;99.40;99758.31;5072298;28;19924;-83
2021/09/11 16:51:53;;;;;;;;;;;;;;;7.20;99.49;99760.00;5070820;28;19946;-83
2021/09/11 16:54:18;;;;;;;;;;;;;;;7.24;99.30;99766.03;5071593;28;20379;-83
2021/09/11 16:56:44;;;;;;;;;;;;;;;7.24;99.90;99760.75;5072150;28;19960;-83
2021/09/11 16:59:09;;;;;;;;;;;;;;;7.23;99.62;99764.31;5071407;28;19920;-83
2021/09/11 17:01:34;;;;;;;;;;;;;;;7.23;99.54;99765.19;5071090;28;20427;-83
2021/09/11 17:04:00;;;;;;;;;;;;;;;7.22;99.63;99765.22;5071888;28;19932;-83
2021/09/11 17:06:25;;;;;;;;;;;;;;;7.15;99.50;99764.53;5102366;28;19929;-83
2021/09/11 17:08:50;;;;;;;;;;;;;;;7.16;99.43;99766.25;5102120;28;20023;-83
2021/09/11 17:11:15;;;;;;;;;;;;;;;7.22;99.20;99767.84;5071894;28;20372;-82
2021/09/11 17:13:41;;;;;;;;;;;;;;;7.13;98.88;99770.75;5069934;28;20331;-82
2021/09/11 17:16:06;;;;;;;;;;;;;;;7.11;98.85;99777.84;5070697;28;19974;-83
2021/09/11 17:18:31;;;;;;;;;;;;;;;7.16;98.96;99773.31;5071303;28;19921;-83
2021/09/11 17:20:57;;;;;;;;;;;;;;;7.20;98.73;99774.97;5071475;28;19949;-82
2021/09/11 17:23:22;;;;;;;;;;;;;;;7.21;99.07;99772.28;5071560;28;19943;-83
2021/09/11 17:25:48;;;;;;;;;;;;;;;7.16;98.94;99774.16;5071107;28;19921;-83
2021/09/11 17:28:13;;;;;;;;;;;;;;;7.13;99.09;99771.59;5071447;28;20264;-83
2021/09/11 17:30:39;;;;;;;;;;;;;;;7.13;98.85;99774.25;5070729;28;20009;-82
2021/09/11 17:33:04;;;;;;;;;;;;;;;7.18;99.16;99779.38;5071564;28;20065;-83